Time;durP1;ratioP1;P1;durP2;ratioP2;P2;SDS_P1;SDS_P2;PMS_P1;PMS_P2;Temp;Humidity;BMP_temperature;BMP_pressure;BME280_temperature;BME280_humidity;BME280_pressure;Samples;Min_cycle;Max_cycle;Signal;HPM_P1;HPM_P2
2022/03/06 00:01:33;;;;;;;4.30;1.52;;;;;;;16.88;42.61;101798.72;5048828;28;20499;-73
2022/03/06 00:04:02;;;;;;;2.30;1.15;;;;;;;16.68;40.14;101808.72;5049204;28;20488;-73
2022/03/06 00:06:30;;;;;;;2.53;1.48;;;;;;;16.48;40.38;101810.03;5048804;28;20052;-73
2022/03/06 00:08:59;;;;;;;3.50;1.20;;;;;;;16.26;41.02;101809.56;5049213;28;20106;-73
2022/03/06 00:11:27;;;;;;;2.40;1.00;;;;;;;15.99;42.64;101817.59;5048813;28;20120;-72
2022/03/06 00:13:56;;;;;;;1.90;1.25;;;;;;;15.80;43.89;101807.53;5045481;28;20048;-73
2022/03/06 00:16:24;;;;;;;1.77;0.95;;;;;;;15.76;44.23;101821.34;5049265;28;20089;-73
2022/03/06 00:18:54;;;;;;;2.15;1.10;;;;;;;15.53;43.25;101816.44;5048772;28;20053;-76
2022/03/06 00:21:23;;;;;;;1.58;0.95;;;;;;;15.40;42.51;101829.97;5048933;28;20049;-77
2022/03/06 00:23:51;;;;;;;2.25;1.20;;;;;;;15.41;44.67;101823.91;5050112;28;20053;-75
2022/03/06 00:26:20;;;;;;;1.52;1.02;;;;;;;15.39;42.51;101830.81;5049664;28;20407;-75
2022/03/06 00:28:48;;;;;;;1.73;0.90;;;;;;;15.40;41.10;101829.97;5051350;28;20104;-74
2022/03/06 00:31:17;;;;;;;2.22;1.10;;;;;;;15.47;42.46;101830.16;5049992;28;20087;-71
2022/03/06 00:33:45;;;;;;;1.65;0.90;;;;;;;15.52;40.92;101835.50;5048789;28;20566;-72
2022/03/06 00:36:15;;;;;;;1.27;0.68;;;;;;;15.53;39.08;101828.56;5048927;28;20110;-74
2022/03/06 00:38:44;;;;;;;2.28;0.70;;;;;;;15.52;39.36;101827.69;5049051;28;20048;-73
2022/03/06 00:41:13;;;;;;;1.13;0.77;;;;;;;15.54;39.96;101831.22;5049151;28;20060;-75
2022/03/06 00:43:41;;;;;;;1.98;0.75;;;;;;;15.45;37.88;101815.31;5048184;28;20049;-74
2022/03/06 00:46:10;;;;;;;1.13;0.70;;;;;;;15.49;39.01;101825.88;5049284;28;20057;-73
2022/03/06 00:48:39;;;;;;;0.95;0.60;;;;;;;15.51;39.41;101828.53;5049255;28;20053;-72
2022/03/06 00:51:07;;;;;;;1.50;0.80;;;;;;;15.49;41.61;101827.63;5049166;28;20502;-75
2022/03/06 00:53:37;;;;;;;2.20;0.73;;;;;;;15.45;38.71;101820.53;5048084;28;20049;-72
2022/03/06 00:56:09;;;;;;;1.83;0.85;;;;;;;15.44;40.97;101824.00;5048530;28;20048;-75
2022/03/06 00:58:38;;;;;;;1.30;0.70;;;;;;;15.40;40.50;101824.75;5035424;28;20045;-74
2022/03/06 01:01:07;;;;;;;1.38;0.80;;;;;;;15.36;42.16;101830.72;5048530;28;20049;-74
2022/03/06 01:03:36;;;;;;;1.48;0.88;;;;;;;15.33;40.87;101830.66;5048042;28;20494;-78
2022/03/06 01:06:04;;;;;;;1.15;0.80;;;;;;;15.27;39.35;101832.22;5048452;28;20126;-76
2022/03/06 01:08:33;;;;;;;1.85;0.90;;;;;;;15.21;39.92;101837.31;5049124;28;20064;-73
2022/03/06 01:11:03;;;;;;;1.50;1.20;;;;;;;15.16;40.70;101838.88;5047319;28;20540;-76
2022/03/06 01:13:32;;;;;;;1.77;0.80;;;;;;;15.10;40.82;101838.72;5045710;28;20052;-75
2022/03/06 01:16:00;;;;;;;2.00;0.90;;;;;;;15.05;40.12;101840.31;5045977;28;20152;-76
2022/03/06 01:18:28;;;;;;;0.85;0.60;;;;;;;14.99;39.37;101840.13;5047055;28;20087;-72
2022/03/06 01:20:57;;;;;;;2.40;0.80;;;;;;;14.90;37.81;101839.88;5048421;28;20080;-76
2022/03/06 01:23:26;;;;;;;2.92;0.80;;;;;;;14.81;37.99;101841.34;5049734;28;20403;-72
2022/03/06 01:25:54;;;;;;;2.85;0.90;;;;;;;14.72;38.33;101848.91;5037146;28;20072;-72
2022/03/06 01:28:24;;;;;;;1.40;0.60;;;;;;;14.65;39.75;101854.75;5047880;28;20055;-72
2022/03/06 01:30:53;;;;;;;1.25;0.82;;;;;;;14.60;41.33;101858.97;5046923;28;20511;-72
2022/03/06 01:33:21;;;;;;;3.40;1.25;;;;;;;14.55;41.20;101863.16;5045769;28;20080;-72
2022/03/06 01:35:52;;;;;;;1.65;0.90;;;;;;;14.48;41.44;101861.13;5046277;28;20087;-72
2022/03/06 01:38:21;;;;;;;3.20;0.90;;;;;;;14.35;41.28;101863.38;5047965;28;20063;-72
2022/03/06 01:40:49;;;;;;;4.32;1.70;;;;;;;14.22;40.01;101853.38;5047437;28;20053;-72
2022/03/06 01:43:18;;;;;;;2.83;1.10;;;;;;;14.11;42.61;101849.56;5033140;28;20091;-71
2022/03/06 01:45:48;;;;;;;4.10;0.88;;;;;;;13.98;42.39;101854.38;5046353;28;20056;-72
2022/03/06 01:48:17;;;;;;;1.40;0.80;;;;;;;13.88;42.68;101851.41;5045642;28;20080;-72
2022/03/06 01:50:45;;;;;;;1.90;1.08;;;;;;;13.80;42.50;101859.84;5047407;28;20139;-72
2022/03/06 01:53:14;;;;;;;1.92;0.93;;;;;;;13.71;42.14;101856.03;5047353;28;20060;-72
2022/03/06 01:55:43;;;;;;;2.00;0.90;;;;;;;13.60;43.48;101860.88;5035117;28;20041;-72
2022/03/06 01:58:13;;;;;;;1.45;0.85;;;;;;;13.51;43.36;101864.03;5051469;28;20045;-72
2022/03/06 02:00:44;;;;;;;2.20;0.93;;;;;;;13.43;44.07;101868.09;5050757;28;20072;-72
2022/03/06 02:03:21;;;;;;;2.80;1.00;;;;;;;13.35;44.36;101869.50;5051057;28;20041;-72
2022/03/06 02:05:50;;;;;;;2.70;1.15;;;;;;;13.28;45.04;101877.91;5051138;28;20049;-71
2022/03/06 02:08:19;;;;;;;1.67;0.90;;;;;;;13.18;44.54;101871.47;5051027;28;20048;-72
2022/03/06 02:10:49;;;;;;;1.83;1.10;;;;;;;13.09;44.50;101877.22;5051423;28;20467;-72
2022/03/06 02:13:17;;;;;;;1.48;0.90;;;;;;;13.00;44.40;101876.88;5051046;28;20049;-72
2022/03/06 02:15:46;;;;;;;2.28;1.05;;;;;;;12.89;44.07;101870.38;5051155;28;20814;-72
2022/03/06 02:18:14;;;;;;;1.80;1.00;;;;;;;12.84;43.65;101884.91;5050736;28;20041;-72
2022/03/06 02:20:45;;;;;;;3.03;1.00;;;;;;;12.74;43.34;101878.50;5054309;28;20048;-72
2022/03/06 02:23:15;;;;;;;2.05;1.13;;;;;;;12.66;43.74;101880.78;5050746;28;20111;-71
2022/03/06 02:25:44;;;;;;;3.03;1.00;;;;;;;12.61;44.81;101892.69;5052789;27;20049;-71
2022/03/06 02:28:13;;;;;;;2.20;1.05;;;;;;;12.56;46.31;101889.03;5051137;28;20052;-72
2022/03/06 02:30:44;;;;;;;2.25;0.95;;;;;;;12.48;46.06;101898.22;5050924;28;20084;-71
2022/03/06 02:33:14;;;;;;;2.95;0.95;;;;;;;12.40;45.94;101897.94;5051057;28;20505;-72
2022/03/06 02:35:43;;;;;;;3.13;1.60;;;;;;;12.32;46.71;101904.50;5050288;28;20049;-71
2022/03/06 02:38:20;;;;;;;4.07;2.40;;;;;;;12.25;47.74;101907.69;5050711;28;20110;-71
2022/03/06 02:40:49;;;;;;;3.72;1.83;;;;;;;12.16;48.69;101913.38;5050519;28;20061;-72
2022/03/06 02:43:17;;;;;;;3.08;1.77;;;;;;;12.07;49.17;101923.34;5050316;28;20122;-71
2022/03/06 02:45:46;;;;;;;2.63;1.50;;;;;;;11.97;49.77;101918.63;5050244;28;20052;-71
2022/03/06 02:48:14;;;;;;;3.65;1.60;;;;;;;11.86;50.35;101921.59;5050369;28;20494;-71
2022/03/06 02:50:43;;;;;;;3.90;1.70;;;;;;;11.74;52.35;101923.66;5050678;28;20155;-71
2022/03/06 02:53:12;;;;;;;4.50;2.15;;;;;;;11.62;53.10;101928.34;5050037;28;20049;-71
2022/03/06 02:55:43;;;;;;;6.55;2.30;;;;;;;11.51;53.97;101926.13;5050276;28;20080;-71
2022/03/06 02:58:12;;;;;;;8.27;2.88;;;;;;;11.39;54.05;101928.19;5050423;28;20044;-72
2022/03/06 03:00:41;;;;;;;5.20;2.58;;;;;;;11.30;53.78;101935.56;5050039;28;20049;-71
2022/03/06 03:03:09;;;;;;;5.07;2.55;;;;;;;11.21;55.00;101935.13;5049954;28;20045;-71
2022/03/06 03:05:38;;;;;;;11.25;3.88;;;;;;;11.09;54.34;101935.47;5049276;28;20136;-72
2022/03/06 03:08:07;;;;;;;8.00;3.95;;;;;;;10.99;55.52;101938.44;5050211;28;20080;-72
2022/03/06 03:10:35;;;;;;;12.43;4.40;;;;;;;10.91;55.90;101943.25;5049138;28;20116;-72
2022/03/06 03:13:06;;;;;;;8.05;4.15;;;;;;;10.82;55.53;101940.22;5050040;28;20556;-72
2022/03/06 03:15:34;;;;;;;8.75;4.40;;;;;;;10.72;56.24;101940.59;5043016;28;20045;-72
2022/03/06 03:18:03;;;;;;;8.63;3.63;;;;;;;10.65;56.49;101945.50;5053166;28;20106;-73
2022/03/06 03:20:31;;;;;;;6.93;3.85;;;;;;;10.59;56.94;101947.78;5049613;28;20093;-72
2022/03/06 03:23:00;;;;;;;8.57;3.75;;;;;;;10.51;59.29;101943.91;5049218;28;20152;-72
2022/03/06 03:25:29;;;;;;;5.53;3.10;;;;;;;10.43;60.04;101946.16;5033218;28;20136;-73
2022/03/06 03:27:57;;;;;;;6.30;3.25;;;;;;;10.34;60.66;101939.63;5021645;28;20125;-71
2022/03/06 03:30:27;;;;;;;10.10;3.17;;;;;;;10.23;60.97;101942.53;5024521;28;20258;-72
2022/03/06 03:32:56;;;;;;;7.13;3.00;;;;;;;10.12;61.81;101943.69;5029935;28;20041;-72
2022/03/06 03:35:24;;;;;;;6.07;3.72;;;;;;;10.01;61.10;101950.94;5029878;28;20046;-71
2022/03/06 03:37:53;;;;;;;8.50;3.50;;;;;;;9.94;61.77;101951.44;5029654;28;20072;-72
2022/03/06 03:40:21;;;;;;;8.07;2.95;;;;;;;9.87;61.64;101951.91;5029801;28;20049;-72
2022/03/06 03:42:50;;;;;;;4.50;2.47;;;;;;;9.79;61.24;101948.94;5029292;28;20041;-70
2022/03/06 03:45:18;;;;;;;6.43;3.20;;;;;;;9.72;61.76;101949.41;5029396;28;20053;-71
2022/03/06 03:47:49;;;;;;;6.57;3.30;;;;;;;9.64;63.08;101945.53;5029838;28;20053;-72
2022/03/06 03:50:17;;;;;;;4.07;2.40;;;;;;;9.57;61.96;101952.06;5016854;28;20143;-72
2022/03/06 03:52:46;;;;;;;4.72;1.98;;;;;;;9.51;62.91;101953.47;5029420;28;20049;-72
2022/03/06 03:55:14;;;;;;;3.88;2.05;;;;;;;9.43;62.54;101963.38;5028864;28;20168;-72
2022/03/06 03:57:43;;;;;;;3.78;1.77;;;;;;;9.36;61.62;101969.91;5029801;28;20088;-72
2022/03/06 04:00:12;;;;;;;2.95;2.22;;;;;;;9.31;62.26;101973.94;5028671;28;20057;-72
2022/03/06 04:02:41;;;;;;;4.47;2.00;;;;;;;9.28;62.46;101976.38;5029228;28;20045;-72
2022/03/06 04:05:11;;;;;;;5.85;1.50;;;;;;;9.24;62.08;101984.75;5028722;28;20115;-71
2022/03/06 04:07:40;;;;;;;2.65;1.60;;;;;;;9.20;62.58;101987.97;5029065;28;20042;-72
2022/03/06 04:10:09;;;;;;;3.60;1.80;;;;;;;9.18;61.03;101992.16;5028672;28;20046;-72
2022/03/06 04:12:37;;;;;;;2.13;1.52;;;;;;;9.15;61.75;101998.03;5015026;28;20045;-72
2022/03/06 04:15:07;;;;;;;3.05;1.80;;;;;;;9.11;65.37;102000.38;5029063;28;20115;-72
2022/03/06 04:17:35;;;;;;;4.45;2.10;;;;;;;9.05;65.63;102005.19;5027813;28;20520;-71
2022/03/06 04:20:04;;;;;;;2.33;1.55;;;;;;;9.00;66.60;101998.09;5028723;28;20057;-72
2022/03/06 04:22:34;;;;;;;3.55;1.65;;;;;;;8.97;67.13;102005.66;5028711;28;20320;-71
2022/03/06 04:25:03;;;;;;;2.17;1.52;;;;;;;8.91;66.67;102000.16;5042408;27;20106;-72
2022/03/06 04:27:31;;;;;;;2.83;1.33;;;;;;;8.87;69.18;102005.97;5048764;28;20041;-72
2022/03/06 04:30:00;;;;;;;12.60;2.00;;;;;;;8.79;69.52;102012.38;5049067;28;20115;-72
2022/03/06 04:32:28;;;;;;;2.97;1.80;;;;;;;8.62;67.59;102018.28;5048765;28;20079;-72
2022/03/06 04:34:57;;;;;;;5.75;1.95;;;;;;;8.51;68.06;102018.53;5048329;28;20056;-72
2022/03/06 04:37:25;;;;;;;3.35;2.10;;;;;;;8.39;67.62;102017.78;5048744;28;20045;-72
2022/03/06 04:39:55;;;;;;;3.65;1.60;;;;;;;8.28;69.08;102022.31;5034542;28;20044;-72
2022/03/06 04:42:24;;;;;;;4.75;2.30;;;;;;;8.19;68.70;102020.06;5048311;28;20088;-72
2022/03/06 04:44:52;;;;;;;4.40;1.83;;;;;;;8.08;68.32;102028.84;5048560;28;20094;-72
2022/03/06 04:47:21;;;;;;;3.63;1.52;;;;;;;8.01;68.96;102030.97;5048894;28;20048;-72
2022/03/06 04:49:49;;;;;;;3.13;2.00;;;;;;;7.87;72.58;102037.88;5048266;28;20518;-72
2022/03/06 04:52:18;;;;;;;4.15;1.80;;;;;;;7.73;71.26;102040.47;5048173;28;20564;-72
2022/03/06 04:54:47;;;;;;;5.65;2.45;;;;;;;7.72;72.11;102043.88;5048322;28;20102;-72
2022/03/06 04:57:17;;;;;;;4.35;2.80;;;;;;;7.70;70.79;102045.47;5033898;28;20045;-71
2022/03/06 04:59:45;;;;;;;3.60;1.85;;;;;;;7.70;73.36;102045.47;5048253;28;20545;-72
2022/03/06 05:02:14;;;;;;;4.60;2.17;;;;;;;7.68;74.25;102048.75;5047419;28;20053;-72
2022/03/06 05:04:42;;;;;;;8.93;2.17;;;;;;;7.64;73.05;102054.50;5047829;28;20048;-72
2022/03/06 05:07:11;;;;;;;4.15;1.80;;;;;;;7.62;73.34;102061.22;5048062;28;20542;-71
2022/03/06 05:09:39;;;;;;;6.78;2.40;;;;;;;7.62;73.69;102064.69;5047871;28;20095;-72
2022/03/06 05:12:09;;;;;;;7.03;3.00;;;;;;;7.61;72.65;102064.63;5047567;28;20072;-71
2022/03/06 05:14:39;;;;;;;6.00;3.67;;;;;;;7.57;72.42;102060.94;5047523;28;20107;-72
2022/03/06 05:17:08;;;;;;;5.95;2.75;;;;;;;7.54;73.12;102063.34;5047945;28;20118;-71
2022/03/06 05:19:36;;;;;;;7.55;3.55;;;;;;;7.51;72.89;102052.81;5048366;28;20044;-72
2022/03/06 05:22:05;;;;;;;4.45;2.67;;;;;;;7.51;72.92;102065.69;5048354;28;20053;-72
2022/03/06 05:24:33;;;;;;;8.02;3.13;;;;;;;7.50;72.60;102058.78;5053484;28;20053;-71
2022/03/06 05:27:02;;;;;;;4.68;2.40;;;;;;;7.49;73.38;102064.72;5047680;28;20045;-71
2022/03/06 05:29:30;;;;;;;5.95;2.72;;;;;;;7.46;72.99;102069.69;5049283;28;20057;-71
2022/03/06 05:32:00;;;;;;;3.50;2.13;;;;;;;7.39;73.82;102080.38;5051775;28;20466;-71
2022/03/06 05:34:29;;;;;;;4.50;2.45;;;;;;;7.22;78.70;102085.34;5052525;28;20076;-71
2022/03/06 05:36:57;;;;;;;3.08;1.83;;;;;;;7.02;81.49;102089.22;5052097;28;20130;-72
2022/03/06 05:39:26;;;;;;;4.28;1.90;;;;;;;6.86;81.09;102082.16;5052296;28;20052;-72
2022/03/06 05:41:54;;;;;;;3.95;2.20;;;;;;;6.80;81.42;102086.00;5051661;28;20053;-71
2022/03/06 05:44:24;;;;;;;3.88;1.85;;;;;;;6.73;82.03;102084.72;5051367;28;20117;-72
2022/03/06 05:46:53;;;;;;;4.90;1.95;;;;;;;6.68;83.16;102080.94;5052085;28;20146;-71
2022/03/06 05:49:23;;;;;;;5.10;2.00;;;;;;;6.63;82.59;102080.66;5051321;28;20145;-71
2022/03/06 05:51:51;;;;;;;5.45;2.50;;;;;;;6.63;83.77;102078.06;5051739;28;20134;-71
2022/03/06 05:54:20;;;;;;;4.22;1.67;;;;;;;6.61;84.97;102071.06;5052127;28;20205;-70
2022/03/06 05:56:48;;;;;;;5.57;1.65;;;;;;;6.69;83.37;102081.06;5037632;28;20048;-71
2022/03/06 05:59:17;;;;;;;3.42;1.83;;;;;;;6.67;83.99;102076.59;5051383;28;20057;-71
2022/03/06 06:01:45;;;;;;;4.78;1.60;;;;;;;6.60;83.93;102070.16;5050885;28;20057;-70
2022/03/06 06:04:14;;;;;;;4.80;2.15;;;;;;;6.61;83.02;102077.06;5051487;28;20107;-70
2022/03/06 06:06:44;;;;;;;4.10;1.65;;;;;;;6.60;82.64;102077.88;5050805;28;20487;-73
2022/03/06 06:09:12;;;;;;;4.60;1.98;;;;;;;6.60;82.57;102079.56;5051400;28;20098;-76
2022/03/06 06:11:41;;;;;;;3.22;2.20;;;;;;;6.57;81.62;102063.91;5051158;28;20133;-74
2022/03/06 06:14:10;;;;;;;8.77;2.40;;;;;;;6.54;83.59;102071.44;5050788;28;20076;-75
2022/03/06 06:16:39;;;;;;;4.72;2.20;;;;;;;6.52;82.83;102080.72;5050813;28;20056;-74
2022/03/06 06:19:10;;;;;;;17.77;6.38;;;;;;;6.48;83.23;102077.03;5051176;28;20056;-73
2022/03/06 06:21:42;;;;;;;5.75;3.08;;;;;;;6.47;83.88;102075.28;5051829;28;20049;-73
2022/03/06 06:24:15;;;;;;;8.02;2.65;;;;;;;6.45;85.27;102082.88;5054731;27;20052;-74
2022/03/06 06:26:45;;;;;;;5.68;2.30;;;;;;;6.43;84.24;102083.56;5051727;28;20568;-75
2022/03/06 06:29:17;;;;;;;4.55;2.20;;;;;;;6.41;84.15;102067.13;5037072;28;20049;-75
2022/03/06 06:31:46;;;;;;;3.80;2.22;;;;;;;6.38;84.06;102072.09;5051076;28;20076;-72
2022/03/06 06:34:14;;;;;;;5.18;2.88;;;;;;;6.35;85.13;102077.03;5050995;28;20045;-73
2022/03/06 06:36:43;;;;;;;4.85;2.33;;;;;;;6.32;83.88;102074.22;5050648;28;20128;-72
2022/03/06 06:39:13;;;;;;;7.18;2.53;;;;;;;6.25;83.96;102075.50;5050844;28;20048;-73
2022/03/06 06:41:42;;;;;;;6.70;2.38;;;;;;;6.21;84.23;102078.66;5035413;28;20057;-72
2022/03/06 06:44:12;;;;;;;5.88;2.85;;;;;;;6.18;84.44;102078.44;5050735;28;20177;-73
2022/03/06 06:46:40;;;;;;;6.40;3.00;;;;;;;6.16;85.96;102085.13;5050744;28;20045;-72
2022/03/06 06:49:10;;;;;;;13.02;3.75;;;;;;;6.15;86.33;102088.50;5051217;28;20077;-73
2022/03/06 06:51:39;;;;;;;7.85;3.92;;;;;;;6.11;84.57;102083.94;5050630;28;20059;-72
2022/03/06 06:54:10;;;;;;;9.23;3.42;;;;;;;6.08;85.57;102082.94;5051171;28;20414;-74
2022/03/06 06:56:41;;;;;;;4.35;2.95;;;;;;;6.05;86.51;102081.84;5050898;28;20053;-73
2022/03/06 06:59:09;;;;;;;11.10;4.32;;;;;;;6.03;85.61;102083.44;5050892;28;20115;-75
2022/03/06 07:01:38;;;;;;;8.38;4.65;;;;;;;6.01;85.43;102091.00;5050184;28;20197;-74
2022/03/06 07:04:06;;;;;;;12.10;4.70;;;;;;;5.97;85.05;102089.00;5050712;28;20068;-75
2022/03/06 07:06:35;;;;;;;9.45;4.65;;;;;;;5.94;84.90;102099.09;5050509;28;20099;-74
2022/03/06 07:09:03;;;;;;;12.80;4.50;;;;;;;5.87;83.70;102097.72;5051087;28;20129;-74
2022/03/06 07:11:32;;;;;;;10.00;4.28;;;;;;;5.83;84.74;102103.44;5050341;28;20270;-73
2022/03/06 07:14:02;;;;;;;10.57;4.63;;;;;;;5.79;85.24;102103.09;5050175;28;20079;-73
2022/03/06 07:16:30;;;;;;;10.63;4.65;;;;;;;5.75;84.99;102107.16;5050543;28;20056;-73
2022/03/06 07:18:59;;;;;;;14.02;4.82;;;;;;;5.71;85.87;102107.72;5050817;28;20045;-71
2022/03/06 07:21:27;;;;;;;11.13;4.95;;;;;;;5.66;85.36;102093.66;5051319;28;20068;-72
2022/03/06 07:23:56;;;;;;;10.55;4.35;;;;;;;5.64;86.62;102093.53;5052770;28;20052;-75
2022/03/06 07:26:24;;;;;;;11.15;4.72;;;;;;;5.61;87.59;102098.47;5051102;28;20150;-74
2022/03/06 07:28:53;;;;;;;9.85;5.53;;;;;;;5.60;88.89;102103.50;5036516;28;20049;-73
2022/03/06 07:31:23;;;;;;;10.23;5.13;;;;;;;5.56;88.62;102104.94;5050253;28;20486;-74
2022/03/06 07:33:51;;;;;;;10.10;5.10;;;;;;;5.48;89.71;102098.38;5050446;28;20452;-73
2022/03/06 07:36:20;;;;;;;12.35;5.15;;;;;;;5.47;89.23;102099.16;5050225;28;20045;-74
2022/03/06 07:38:48;;;;;;;12.13;5.20;;;;;;;5.39;90.38;102111.44;5050567;28;20045;-74
2022/03/06 07:41:17;;;;;;;10.13;5.35;;;;;;;5.35;92.15;102109.44;5049963;28;20099;-73
2022/03/06 07:43:46;;;;;;;8.68;4.28;;;;;;;5.32;94.34;102111.78;5050669;28;20049;-72
2022/03/06 07:46:14;;;;;;;8.38;4.10;;;;;;;5.30;95.83;102115.03;5049771;28;20045;-73
2022/03/06 07:48:44;;;;;;;8.80;4.18;;;;;;;5.29;96.71;102118.34;5050154;28;20049;-74
2022/03/06 07:51:13;;;;;;;11.63;5.03;;;;;;;5.25;96.73;102123.28;5050370;28;20060;-74
2022/03/06 07:53:41;;;;;;;11.95;3.55;;;;;;;5.23;99.04;102114.56;5049646;28;20220;-72
2022/03/06 07:56:10;;;;;;;12.13;4.63;;;;;;;5.20;98.37;102116.94;5049496;28;20620;-73
2022/03/06 07:58:38;;;;;;;10.80;3.92;;;;;;;5.16;97.91;102112.34;5049529;28;20479;-72
2022/03/06 08:01:07;;;;;;;9.65;4.55;;;;;;;5.09;100.00;102112.69;5049296;28;20487;-73
2022/03/06 08:03:35;;;;;;;7.95;3.78;;;;;;;5.01;100.00;102113.78;5048580;28;20103;-72
2022/03/06 08:06:05;;;;;;;9.82;3.92;;;;;;;4.96;100.00;102115.13;5049223;28;20049;-73
2022/03/06 08:08:34;;;;;;;9.13;4.15;;;;;;;4.87;100.00;102119.56;5049203;28;20628;-72
2022/03/06 08:11:02;;;;;;;8.95;3.40;;;;;;;4.83;100.00;102123.56;5049173;28;20045;-73
2022/03/06 08:13:31;;;;;;;8.85;3.72;;;;;;;4.81;100.00;102123.47;5048996;28;20102;-73
2022/03/06 08:15:59;;;;;;;7.40;3.08;;;;;;;4.80;100.00;102124.22;5049177;28;20052;-73
2022/03/06 08:18:28;;;;;;;4.93;3.03;;;;;;;4.78;100.00;102125.78;5049178;28;20083;-73
2022/03/06 08:20:56;;;;;;;6.57;3.53;;;;;;;4.77;100.00;102120.56;5049057;28;20080;-73
2022/03/06 08:23:26;;;;;;;10.25;3.50;;;;;;;4.75;100.00;102124.69;5052528;28;20450;-73
2022/03/06 08:26:01;;;;;;;7.65;3.80;;;;;;;4.73;100.00;102122.00;5052943;27;20088;-72
2022/03/06 08:28:30;;;;;;;7.60;3.63;;;;;;;4.71;100.00;102120.97;5049240;28;20045;-73
2022/03/06 08:30:58;;;;;;;8.95;4.20;;;;;;;4.61;100.00;102124.53;5048693;28;20053;-73
2022/03/06 08:33:27;;;;;;;8.18;3.25;;;;;;;4.46;100.00;102114.78;5049086;28;20045;-72
2022/03/06 08:35:55;;;;;;;5.95;2.92;;;;;;;4.36;100.00;102121.78;5048060;28;20053;-72
2022/03/06 08:38:24;;;;;;;6.68;3.17;;;;;;;4.34;100.00;102123.31;5048835;28;20537;-72
2022/03/06 08:40:54;;;;;;;7.13;2.90;;;;;;;4.35;100.00;102129.34;5049000;28;20051;-72
2022/03/06 08:43:22;;;;;;;5.65;3.00;;;;;;;4.36;100.00;102131.13;5048798;28;20046;-72
2022/03/06 08:45:51;;;;;;;8.93;3.03;;;;;;;4.36;100.00;102128.56;5048440;28;20053;-72
2022/03/06 08:48:21;;;;;;;8.70;3.45;;;;;;;4.35;100.00;102129.34;5048541;28;20106;-73
2022/03/06 08:50:50;;;;;;;8.95;2.63;;;;;;;4.34;100.00;102120.75;5048426;28;20053;-72
2022/03/06 08:53:19;;;;;;;6.80;3.45;;;;;;;4.35;100.00;102125.13;5048547;28;20055;-72
2022/03/06 08:55:47;;;;;;;8.65;3.70;;;;;;;4.35;100.00;102124.22;5048673;28;20095;-73
2022/03/06 08:58:17;;;;;;;5.93;2.67;;;;;;;4.28;100.00;102133.09;5048993;28;20495;-73
2022/03/06 09:00:46;;;;;;;8.35;2.42;;;;;;;4.14;100.00;102129.47;5048911;28;20045;-73
2022/03/06 09:03:15;;;;;;;4.25;2.05;;;;;;;4.01;100.00;102128.41;5048767;28;20106;-72
2022/03/06 09:05:45;;;;;;;7.68;3.00;;;;;;;3.96;100.00;102138.28;5047904;28;20049;-72
2022/03/06 09:08:16;;;;;;;8.98;3.28;;;;;;;3.97;100.00;102132.41;5049020;28;20045;-72
2022/03/06 09:10:44;;;;;;;6.78;3.05;;;;;;;3.98;100.00;102134.19;5048640;28;20434;-72
2022/03/06 09:13:13;;;;;;;9.57;3.53;;;;;;;4.01;100.00;102130.97;5047742;28;20081;-72
2022/03/06 09:15:43;;;;;;;7.90;3.53;;;;;;;4.01;100.00;102136.09;5046039;28;20060;-72
2022/03/06 09:18:11;;;;;;;5.15;2.65;;;;;;;3.98;100.00;102127.38;5048841;28;20094;-72
2022/03/06 09:20:40;;;;;;;7.45;3.45;;;;;;;3.96;100.00;102134.09;5048750;28;20048;-72
2022/03/06 09:23:09;;;;;;;6.25;3.38;;;;;;;3.95;100.00;102139.97;5048959;28;20095;-73
2022/03/06 09:25:37;;;;;;;10.95;2.92;;;;;;;3.96;100.00;102144.31;5051357;28;20052;-74
2022/03/06 09:28:07;;;;;;;8.05;3.75;;;;;;;3.95;100.00;102136.50;5039204;28;20464;-73
2022/03/06 09:30:35;;;;;;;8.75;3.80;;;;;;;3.96;100.00;102141.75;5044629;28;20103;-74
2022/03/06 09:33:06;;;;;;;6.32;2.90;;;;;;;3.90;100.00;102148.97;5048907;28;20438;-71
2022/03/06 09:35:34;;;;;;;9.63;4.00;;;;;;;3.84;100.00;102158.69;5048390;28;20094;-73
2022/03/06 09:38:03;;;;;;;8.10;3.30;;;;;;;3.81;100.00;102153.34;5048741;28;20080;-73
2022/03/06 09:40:31;;;;;;;9.00;3.40;;;;;;;3.80;100.00;102160.91;5048784;28;20108;-71
2022/03/06 09:43:00;;;;;;;7.25;3.55;;;;;;;3.78;100.00;102164.25;5047748;28;20492;-72
2022/03/06 09:45:31;;;;;;;11.82;3.95;;;;;;;3.79;100.00;102172.81;5048537;28;20545;-72
2022/03/06 09:48:00;;;;;;;11.82;4.32;;;;;;;3.79;100.00;102170.25;5047434;28;20511;-72
2022/03/06 09:50:30;;;;;;;8.85;4.13;;;;;;;3.77;100.00;102172.69;5048264;28;20083;-73
2022/03/06 09:52:58;;;;;;;13.43;4.63;;;;;;;3.73;100.00;102175.78;5047913;28;20053;-73
2022/03/06 09:55:29;;;;;;;12.15;3.83;;;;;;;3.72;100.00;102162.88;5048215;28;20041;-72
2022/03/06 09:58:01;;;;;;;14.52;4.68;;;;;;;3.62;100.00;102155.19;5047666;28;20053;-72
2022/03/06 10:00:29;;;;;;;8.25;4.00;;;;;;;3.67;100.00;102170.19;5048165;28;20077;-72
2022/03/06 10:02:59;;;;;;;7.53;3.72;;;;;;;3.67;100.00;102172.75;5047439;28;20056;-72
2022/03/06 10:05:31;;;;;;;9.45;4.25;;;;;;;3.66;100.00;102173.50;5048130;28;20045;-72
2022/03/06 10:08:18;;;;;;;8.35;3.80;;;;;;;3.62;100.00;102173.13;5047940;28;20497;-73
2022/03/06 10:10:47;;;;;;;11.13;3.90;;;;;;;3.59;100.00;102180.56;5047981;28;20069;-73
2022/03/06 10:13:24;;;;;;;7.85;3.72;;;;;;;3.52;100.00;102185.19;5047151;28;20246;-72
2022/03/06 10:16:15;;;;;;;7.18;3.55;;;;;;;3.47;100.00;102188.16;5046188;28;20045;-72
2022/03/06 10:18:45;;;;;;;11.63;4.68;;;;;;;3.46;100.00;102184.72;5051582;28;20115;-72
2022/03/06 10:21:18;;;;;;;6.55;2.78;;;;;;;3.44;100.00;102183.69;5050828;28;20091;-72
2022/03/06 10:23:48;;;;;;;9.70;4.22;;;;;;;3.41;100.00;102179.97;5050973;28;20133;-73
2022/03/06 10:26:18;;;;;;;12.07;3.75;;;;;;;3.39;100.00;102182.44;5052893;27;20119;-72
2022/03/06 10:28:49;;;;;;;10.77;3.50;;;;;;;3.37;100.00;102194.19;5053809;28;20072;-72
2022/03/06 10:31:19;;;;;;;5.95;3.20;;;;;;;3.36;100.00;102194.94;5051742;28;20136;-72
2022/03/06 10:33:58;;;;;;;9.70;4.10;;;;;;;3.30;100.00;102190.25;5051848;28;20041;-72
2022/03/06 10:36:40;;;;;;;7.07;2.72;;;;;;;3.28;100.00;102190.88;5051901;28;20080;-73
2022/03/06 10:39:14;;;;;;;3.08;1.85;;;;;;;3.25;100.00;102188.97;5051682;28;20080;-73
2022/03/06 10:41:45;;;;;;;3.95;2.63;;;;;;;3.15;100.00;102197.53;5051083;28;20053;-72
2022/03/06 10:44:15;;;;;;;4.28;2.45;;;;;;;3.10;100.00;102198.81;5051120;28;20608;-72
2022/03/06 10:46:44;;;;;;;3.55;1.80;;;;;;;3.05;100.00;102199.22;5051635;28;20055;-71
2022/03/06 10:49:17;;;;;;;4.70;2.47;;;;;;;2.95;100.00;102200.09;5044170;28;20100;-73
2022/03/06 10:51:48;;;;;;;6.60;2.83;;;;;;;2.90;100.00;102201.38;5040398;28;20045;-72
2022/03/06 10:54:17;;;;;;;5.13;2.53;;;;;;;2.92;100.00;102199.84;5050789;28;20049;-72
2022/03/06 10:56:49;;;;;;;5.45;2.63;;;;;;;2.85;100.00;102200.13;5050505;28;20045;-72
2022/03/06 10:59:20;;;;;;;6.70;2.60;;;;;;;2.79;100.00;102209.81;5050984;28;20491;-74
2022/03/06 11:01:49;;;;;;;6.05;2.53;;;;;;;2.82;100.00;102217.72;5050623;28;20091;-71
2022/03/06 11:04:19;;;;;;;6.43;2.05;;;;;;;2.86;100.00;102212.13;5050417;28;20045;-72
2022/03/06 11:06:52;;;;;;;5.00;2.33;;;;;;;2.87;100.00;102198.59;5045786;28;20049;-74
2022/03/06 11:09:21;;;;;;;3.17;1.65;;;;;;;2.86;100.00;102212.13;5042804;28;20049;-73
2022/03/06 11:11:52;;;;;;;5.10;1.90;;;;;;;2.84;100.00;102213.66;5050486;28;20041;-72
2022/03/06 11:14:21;;;;;;;5.28;1.65;;;;;;;2.83;100.00;102211.88;5050892;28;20053;-72
2022/03/06 11:16:49;;;;;;;5.05;1.65;;;;;;;2.83;100.00;102210.19;5050212;28;20115;-72
2022/03/06 11:19:18;;;;;;;4.40;1.90;;;;;;;2.86;100.00;102207.00;5051156;28;20049;-73
2022/03/06 11:21:51;;;;;;;3.90;1.77;;;;;;;2.87;100.00;102198.59;5050264;28;20487;-73
2022/03/06 11:24:26;;;;;;;3.67;1.38;;;;;;;2.82;100.00;102200.75;5049627;28;20059;-73
2022/03/06 11:27:19;;;;;;;6.72;1.95;;;;;;;2.83;100.00;102204.19;5052292;27;20065;-73
2022/03/06 11:29:56;;;;;;;3.10;1.80;;;;;;;2.84;100.00;102193.19;5052113;28;20059;-73
2022/03/06 11:32:27;;;;;;;4.43;1.65;;;;;;;2.85;100.00;102198.44;5050856;28;20041;-72
2022/03/06 11:35:03;;;;;;;3.50;1.48;;;;;;;2.88;100.00;102195.25;5050546;28;20055;-72
2022/03/06 11:37:51;;;;;;;3.80;1.17;;;;;;;2.89;100.00;102195.38;5050680;28;20499;-73